Mercini Lady — A8DL4 — position and weather

sailwx.info

Track history (hours):
 
Tides and Currents Weather Stations Pressure Air Temp Water Temp Dewpoint Dewpoint Depression Visibility Wind Speed Wind Dir Waves Ship Positions

Mercini Lady

Last reported at 2015-May-03 21:31 UTC. Time now 2015-May-03 21:56 UTC.
Position N 40°30' W 073°41'.

Length 182 m; draft 7.6 m.

Type: Tanker. MMSI: 636012102.

Date/timePositionNaut miles runAvg speedWind from/ knotsBaromVisibWave heightAir tempDewpointWater temp
2015-May-03 21:31N 40°30' W 073°41'0 0.0
2015-May-03 20:32N 40°30' W 073°41'0 0.0
2015-May-03 19:29N 40°30' W 073°41'0 0.0
2015-May-03 18:30N 40°30' W 073°41'0 0.0
2015-May-03 17:28N 40°30' W 073°41'0 0.0
2015-May-03 15:17N 40°30' W 073°41'0 0.0
2015-May-03 14:12N 40°30' W 073°41'0 0.0
2015-May-03 13:30N 40°30' W 073°41'0 0.0
2015-May-03 12:28N 40°30' W 073°41'0 0.0
2015-May-03 11:32N 40°30' W 073°41'0 0.0
2015-May-03 10:32N 40°30' W 073°41'0 0.0
2015-May-03 09:33N 40°30' W 073°41'0 0.0
2015-May-03 08:31N 40°30' W 073°41'0 0.0
2015-May-03 07:31N 40°30' W 073°41'0 0.2
2015-May-03 06:32N 40°30' W 073°41'0 0.0
2015-May-03 05:30N 40°30' W 073°41'0 0.0
2015-May-03 04:33N 40°30' W 073°41'0 0.1
2015-May-03 03:31N 40°30' W 073°41'0 0.0
2015-May-03 02:14N 40°30' W 073°41'0 0.0
2015-May-03 00:12N 40°30' W 073°41'0 0.0
2015-May-02 23:28N 40°30' W 073°41'0 0.0
2015-May-02 22:26N 40°30' W 073°41'0 0.0
2015-May-02 21:23N 40°30' W 073°41'0 0.0
2015-May-02 20:27N 40°30' W 073°41'0 0.0
2015-May-02 16:32N 40°30' W 073°41'0 0.0
2015-May-02 15:27N 40°30' W 073°41'1 1.1
2015-May-02 14:33N 40°30' W 073°43'8 8.0
2015-May-02 13:33N 40°27' W 073°52'1110.7
2015-May-02 12:33N 40°29' W 074°06'7 7.0
2015-May-02 11:33N 40°31' W 074°15'5 5.2
2015-May-02 10:32N 40°36' W 074°12'0 0.0
2015-May-01 08:34N 40°36' W 074°12'1 1.4
2015-May-01 07:32N 40°35' W 074°13'0 0.0
2015-Apr-30 13:33N 40°35' W 074°13'3 2.9
2015-Apr-30 12:34N 40°38' W 074°12'5 5.4
2015-Apr-30 11:33N 40°39' W 074°05'1 1.4
2015-Apr-30 10:29N 40°38' W 074°04'0 0.0
2015-Apr-30 09:30N 40°38' W 074°04'0 0.0
2015-Apr-30 08:33N 40°38' W 074°04'0 0.2
2015-Apr-30 07:31N 40°38' W 074°04'0 0.0
2015-Apr-30 06:31N 40°38' W 074°04'0 0.0
2015-Apr-30 05:32N 40°38' W 074°04'0 0.0
2015-Apr-30 04:33N 40°38' W 074°04'0 0.0
2015-Apr-30 03:34N 40°38' W 074°04'0 0.0
2015-Apr-30 02:31N 40°38' W 074°04'0 0.0
2015-Apr-30 01:32N 40°38' W 074°04'0 0.2
2015-Apr-30 00:32N 40°38' W 074°04'0 0.2
2015-Apr-29 23:33N 40°38' W 074°04'0 0.0
2015-Apr-29 22:25N 40°38' W 074°04'0 0.0
2015-Apr-29 21:31N 40°38' W 074°04'0 0.0
2015-Apr-29 20:32N 40°38' W 074°04'0 0.2
2015-Apr-29 19:32N 40°38' W 074°04'0 0.1
2015-Apr-29 18:33N 40°38' W 074°04'0 0.0
2015-Apr-29 17:31N 40°38' W 074°04'0 0.1
2015-Apr-29 16:34N 40°38' W 074°04'5 5.1
2015-Apr-29 15:33N 40°33' W 074°02'8 8.2
2015-Apr-29 14:33N 40°29' W 073°53'7 7.1
2015-Apr-29 13:31N 40°25' W 073°44'10 8.6
2015-Apr-29 12:23N 40°19' W 073°34'8 7.5
2015-Apr-29 11:22N 40°15' W 073°26'28 9.7
2015-Apr-29 08:27N 40°04' W 072°52'1210.1
2015-Apr-29 07:16N 40°02' W 072°36'2810.4
2015-Apr-29 04:33N 39°56' W 071°60'1010.2
2015-Apr-29 03:33N 39°54' W 071°47'10 9.7
2015-Apr-29 02:34N 39°52' W 071°35'10 9.6
2015-Apr-29 01:33N 39°50' W 071°22'9 9.1
2015-Apr-29 00:34N 39°49' W 071°11'  
Track history (hours):
 
Tides and Currents Weather Stations Pressure Air Temp Water Temp Dewpoint Dewpoint Depression Visibility Wind Speed Wind Dir Waves Ship Positions

Mercini Lady

Last reported at 2015-May-03 21:31 UTC. Time now 2015-May-03 21:56 UTC.
Position N 40°30' W 073°41'.

Length 182 m; draft 7.6 m.

Type: Tanker. MMSI: 636012102.

Date/timePositionNaut miles runAvg speedWind from/ knotsBaromVisibWave heightAir tempDewpointWater temp
2015-May-03 21:31N 40°30' W 073°41'0 0.0
2015-May-03 20:32N 40°30' W 073°41'0 0.0
2015-May-03 19:29N 40°30' W 073°41'0 0.0
2015-May-03 18:30N 40°30' W 073°41'0 0.0
2015-May-03 17:28N 40°30' W 073°41'0 0.0
2015-May-03 15:17N 40°30' W 073°41'0 0.0
2015-May-03 14:12N 40°30' W 073°41'0 0.0
2015-May-03 13:30N 40°30' W 073°41'0 0.0
2015-May-03 12:28N 40°30' W 073°41'0 0.0
2015-May-03 11:32N 40°30' W 073°41'0 0.0
2015-May-03 10:32N 40°30' W 073°41'0 0.0
2015-May-03 09:33N 40°30' W 073°41'0 0.0
2015-May-03 08:31N 40°30' W 073°41'0 0.0
2015-May-03 07:31N 40°30' W 073°41'0 0.2
2015-May-03 06:32N 40°30' W 073°41'0 0.0
2015-May-03 05:30N 40°30' W 073°41'0 0.0
2015-May-03 04:33N 40°30' W 073°41'0 0.1
2015-May-03 03:31N 40°30' W 073°41'0 0.0
2015-May-03 02:14N 40°30' W 073°41'0 0.0
2015-May-03 00:12N 40°30' W 073°41'0 0.0
2015-May-02 23:28N 40°30' W 073°41'0 0.0
2015-May-02 22:26N 40°30' W 073°41'0 0.0
2015-May-02 21:23N 40°30' W 073°41'0 0.0
2015-May-02 20:27N 40°30' W 073°41'0 0.0
2015-May-02 16:32N 40°30' W 073°41'0 0.0
2015-May-02 15:27N 40°30' W 073°41'1 1.1
2015-May-02 14:33N 40°30' W 073°43'8 8.0
2015-May-02 13:33N 40°27' W 073°52'1110.7
2015-May-02 12:33N 40°29' W 074°06'7 7.0
2015-May-02 11:33N 40°31' W 074°15'5 5.2
2015-May-02 10:32N 40°36' W 074°12'0 0.0
2015-May-01 08:34N 40°36' W 074°12'1 1.4
2015-May-01 07:32N 40°35' W 074°13'0 0.0
2015-Apr-30 13:33N 40°35' W 074°13'3 2.9
2015-Apr-30 12:34N 40°38' W 074°12'5 5.4
2015-Apr-30 11:33N 40°39' W 074°05'1 1.4
2015-Apr-30 10:29N 40°38' W 074°04'0 0.0
2015-Apr-30 09:30N 40°38' W 074°04'0 0.0
2015-Apr-30 08:33N 40°38' W 074°04'0 0.2
2015-Apr-30 07:31N 40°38' W 074°04'0 0.0
2015-Apr-30 06:31N 40°38' W 074°04'0 0.0
2015-Apr-30 05:32N 40°38' W 074°04'0 0.0
2015-Apr-30 04:33N 40°38' W 074°04'0 0.0
2015-Apr-30 03:34N 40°38' W 074°04'0 0.0
2015-Apr-30 02:31N 40°38' W 074°04'0 0.0
2015-Apr-30 01:32N 40°38' W 074°04'0 0.2
2015-Apr-30 00:32N 40°38' W 074°04'0 0.2
2015-Apr-29 23:33N 40°38' W 074°04'0 0.0
2015-Apr-29 22:25N 40°38' W 074°04'0 0.0
2015-Apr-29 21:31N 40°38' W 074°04'0 0.0
2015-Apr-29 20:32N 40°38' W 074°04'0 0.2
2015-Apr-29 19:32N 40°38' W 074°04'0 0.1
2015-Apr-29 18:33N 40°38' W 074°04'0 0.0
2015-Apr-29 17:31N 40°38' W 074°04'0 0.1
2015-Apr-29 16:34N 40°38' W 074°04'5 5.1
2015-Apr-29 15:33N 40°33' W 074°02'8 8.2
2015-Apr-29 14:33N 40°29' W 073°53'7 7.1
2015-Apr-29 13:31N 40°25' W 073°44'10 8.6
2015-Apr-29 12:23N 40°19' W 073°34'8 7.5
2015-Apr-29 11:22N 40°15' W 073°26'28 9.7
2015-Apr-29 08:27N 40°04' W 072°52'1210.1
2015-Apr-29 07:16N 40°02' W 072°36'2810.4
2015-Apr-29 04:33N 39°56' W 071°60'1010.2
2015-Apr-29 03:33N 39°54' W 071°47'10 9.7
2015-Apr-29 02:34N 39°52' W 071°35'10 9.6
2015-Apr-29 01:33N 39°50' W 071°22'9 9.1
2015-Apr-29 00:34N 39°49' W 071°11'  

Dump ship's entire track history